Terminal Aerodrome Forecast
Issued by NWS Pittsburgh, PA

Current Version | Previous Version | Text Only | Print | Product List | Glossary Off
Versions: 1 2 3 4 5 6 7 8 9 10 11 12 13 14 15 16 17 18 19

000
FTUS41 KPBZ 280500
TAFPIT
TAF
KPIT 280526Z 2806/2912 23006KT 4SM -RA OVC015
     FM280800 26006KT 4SM -RA OVC007
     FM281200 30007KT P6SM -SHRA OVC015
     FM281700 30006KT P6SM BKN025=

USA.gov is the U.S. government's official web portal to all federal, state and local government web resources and services.